createdAt,value
2022-10-18T00:01:09.327Z,19.30
2022-10-18T00:06:15.491Z,19.30
2022-10-18T00:08:43.666Z,19.20
2022-10-18T00:11:11.805Z,20.20
2022-10-18T00:13:39.878Z,17.00
2022-10-18T00:16:15.335Z,18.80
2022-10-18T00:18:44.447Z,19.60
2022-10-18T00:21:17.091Z,18.80
2022-10-18T00:23:46.201Z,17.20
2022-10-18T00:26:24.080Z,16.70
2022-10-18T00:28:56.377Z,15.80
2022-10-18T00:31:31.616Z,15.10
2022-10-18T00:34:11.185Z,15.30
2022-10-18T00:36:39.323Z,13.60
2022-10-18T00:39:09.436Z,16.10
2022-10-18T00:41:38.474Z,13.20
2022-10-18T00:44:12.672Z,14.10
2022-10-18T00:46:49.092Z,14.00
2022-10-18T00:49:55.752Z,13.00
2022-10-18T00:52:34.803Z,14.50
2022-10-18T00:55:04.640Z,15.40
2022-10-18T00:57:33.284Z,15.00
2022-10-18T01:00:02.144Z,15.30
2022-10-18T01:02:32.416Z,15.00
2022-10-18T01:05:00.693Z,16.00
2022-10-18T01:07:47.907Z,16.30
2022-10-18T01:10:37.264Z,14.40
2022-10-18T01:13:25.819Z,14.80
2022-10-18T01:16:27.691Z,14.90
2022-10-18T01:19:13.959Z,15.80
2022-10-18T01:21:53.997Z,14.70
2022-10-18T01:24:53.532Z,16.30
2022-10-18T01:27:38.740Z,16.10
2022-10-18T01:30:33.941Z,15.30
2022-10-18T01:33:21.920Z,16.70
2022-10-18T01:35:58.922Z,15.80
2022-10-18T01:38:30.425Z,18.00
2022-10-18T01:41:02.299Z,20.10
2022-10-18T01:43:32.544Z,19.20
2022-10-18T01:46:01.151Z,17.30
2022-10-18T01:48:30.964Z,18.60
2022-10-18T01:50:59.382Z,17.50
2022-10-18T01:53:34.952Z,18.10
2022-10-18T01:56:24.916Z,17.90
2022-10-18T01:59:08.753Z,18.40
2022-10-18T02:01:51.064Z,17.70
2022-10-18T02:04:54.523Z,17.80
2022-10-18T02:07:39.601Z,17.70
2022-10-18T02:10:28.087Z,16.00
2022-10-18T02:12:57.284Z,16.80
2022-10-18T02:15:33.061Z,17.50
2022-10-18T02:18:11.046Z,16.10
2022-10-18T02:20:39.425Z,17.80
2022-10-18T02:23:10.839Z,16.80
2022-10-18T02:25:39.525Z,17.60
2022-10-18T02:28:07.819Z,17.40
2022-10-18T02:30:51.622Z,17.90
2022-10-18T02:33:32.691Z,17.70
2022-10-18T02:36:10.008Z,18.80
2022-10-18T02:38:41.431Z,16.80
2022-10-18T02:41:09.437Z,16.20
2022-10-18T02:43:37.501Z,16.40
2022-10-18T02:46:05.835Z,17.50
2022-10-18T02:48:33.827Z,19.70
2022-10-18T02:51:01.962Z,20.00
2022-10-18T02:53:30.047Z,20.20
2022-10-18T02:55:58.074Z,19.00
2022-10-18T02:58:26.100Z,18.70
2022-10-18T03:00:54.159Z,18.60
2022-10-18T03:03:22.206Z,20.20
2022-10-18T03:05:51.381Z,18.60
2022-10-18T03:08:20.056Z,17.80
2022-10-18T03:10:48.104Z,18.70
2022-10-18T03:13:16.599Z,17.50
2022-10-18T03:15:44.641Z,16.40
2022-10-18T03:18:12.677Z,17.70
2022-10-18T03:20:40.848Z,17.80
2022-10-18T03:23:09.085Z,16.90
2022-10-18T03:25:37.149Z,16.00
2022-10-18T03:28:05.340Z,16.40
2022-10-18T03:30:33.338Z,16.90
2022-10-18T03:33:01.408Z,15.50
2022-10-18T03:35:29.429Z,16.60
2022-10-18T03:37:57.724Z,15.50
2022-10-18T03:40:25.906Z,15.20
2022-10-18T03:42:53.969Z,14.80
2022-10-18T03:45:21.995Z,15.00
2022-10-18T03:47:50.024Z,16.50
2022-10-18T03:50:18.492Z,15.20
2022-10-18T03:52:46.591Z,14.70
2022-10-18T03:55:14.663Z,15.20
2022-10-18T03:57:42.661Z,14.60
2022-10-18T04:00:11.709Z,15.50
2022-10-18T04:02:42.724Z,16.10
2022-10-18T04:05:10.854Z,17.00
2022-10-18T04:07:38.897Z,17.50
2022-10-18T04:10:07.894Z,15.40
2022-10-18T04:12:35.915Z,15.90
2022-10-18T04:15:04.339Z,15.50
2022-10-18T04:17:32.620Z,18.40
2022-10-18T04:20:00.860Z,17.70
2022-10-18T04:22:28.919Z,18.10
2022-10-18T04:24:57.296Z,19.90
2022-10-18T04:27:25.710Z,18.50
2022-10-18T04:29:53.816Z,20.70
2022-10-18T04:32:21.843Z,20.30
2022-10-18T04:34:49.880Z,22.50
2022-10-18T04:37:17.927Z,22.40
2022-10-18T04:39:51.215Z,20.10
2022-10-18T04:42:22.699Z,20.20
2022-10-18T04:44:51.021Z,20.60
2022-10-18T04:47:19.104Z,19.50
2022-10-18T04:49:47.131Z,19.60
2022-10-18T04:52:15.222Z,18.60
2022-10-18T04:54:43.443Z,18.60
2022-10-18T04:57:11.487Z,17.30
2022-10-18T04:59:39.549Z,18.30
2022-10-18T05:02:07.821Z,18.30
2022-10-18T05:04:35.932Z,18.60
2022-10-18T05:07:05.946Z,20.00
2022-10-18T05:09:34.022Z,20.10
2022-10-18T05:12:02.197Z,19.20
2022-10-18T05:14:30.363Z,19.80
2022-10-18T05:16:58.383Z,20.00
2022-10-18T05:19:26.480Z,21.00
2022-10-18T05:21:54.529Z,19.10
2022-10-18T05:24:25.482Z,19.20
2022-10-18T05:26:55.749Z,18.00
2022-10-18T05:29:24.680Z,17.60
2022-10-18T05:31:52.752Z,19.20
2022-10-18T05:34:20.951Z,21.00
2022-10-18T05:36:51.931Z,19.80
2022-10-18T05:39:20.072Z,19.40
2022-10-18T05:41:48.106Z,19.60
2022-10-18T05:44:16.170Z,20.20
2022-10-18T05:46:44.268Z,20.80
2022-10-18T05:49:13.249Z,18.90
2022-10-18T05:51:41.413Z,19.60
2022-10-18T05:54:12.167Z,21.20
2022-10-18T05:56:40.961Z,17.40
2022-10-18T05:59:12.310Z,22.20
2022-10-18T06:01:42.415Z,24.40
2022-10-18T06:04:10.734Z,54.00
2022-10-18T06:06:39.695Z,34.70
2022-10-18T06:09:08.642Z,29.70
2022-10-18T06:11:37.391Z,25.70
2022-10-18T06:14:05.632Z,26.10
2022-10-18T06:16:33.976Z,25.90
2022-10-18T06:19:02.132Z,35.90
2022-10-18T06:21:30.238Z,26.50
2022-10-18T06:23:59.552Z,25.20
2022-10-18T06:26:27.958Z,31.10
2022-10-18T06:28:56.131Z,29.00
2022-10-18T06:31:24.193Z,25.60
2022-10-18T06:33:52.269Z,22.30
2022-10-18T06:36:24.102Z,28.10
2022-10-18T06:38:52.424Z,25.20
2022-10-18T06:41:20.725Z,27.20
2022-10-18T06:43:50.571Z,23.50
2022-10-18T06:46:19.137Z,22.30
2022-10-18T06:48:47.243Z,22.10
2022-10-18T06:51:15.569Z,22.70
2022-10-18T06:53:44.504Z,20.90
2022-10-18T06:56:21.453Z,19.60
2022-10-18T06:58:49.564Z,19.00
2022-10-18T07:01:19.131Z,19.30
2022-10-18T07:03:49.172Z,20.00
2022-10-18T07:06:21.279Z,20.00
2022-10-18T07:08:52.803Z,20.70
2022-10-18T07:11:25.321Z,20.00
2022-10-18T07:13:55.261Z,21.10
2022-10-18T07:16:23.365Z,21.40
2022-10-18T07:18:51.592Z,21.20
2022-10-18T07:21:22.570Z,20.40
2022-10-18T07:23:51.930Z,23.30
2022-10-18T07:26:32.117Z,22.10
2022-10-18T07:29:11.617Z,23.10
2022-10-18T07:31:40.934Z,23.10
2022-10-18T07:34:12.766Z,25.70
2022-10-18T07:36:41.637Z,25.90
2022-10-18T07:39:09.687Z,26.30
2022-10-18T07:41:38.143Z,23.40
2022-10-18T07:44:06.741Z,22.60
2022-10-18T07:46:34.880Z,20.80
2022-10-18T07:49:03.287Z,20.00
2022-10-18T07:51:32.828Z,19.80
2022-10-18T07:54:00.888Z,22.10
2022-10-18T07:56:29.033Z,24.60
2022-10-18T07:58:57.233Z,27.80
2022-10-18T08:01:25.989Z,27.40
2022-10-18T08:03:54.379Z,28.90
2022-10-18T08:06:23.276Z,24.40
2022-10-18T08:08:52.349Z,25.00
2022-10-18T08:11:23.938Z,25.80
2022-10-18T08:13:53.922Z,27.10
2022-10-18T08:16:28.160Z,23.40
2022-10-18T08:18:58.386Z,24.10
2022-10-18T08:21:27.027Z,27.30
2022-10-18T08:23:55.293Z,26.60
2022-10-18T08:26:23.948Z,26.70
2022-10-18T08:29:10.279Z,28.00
2022-10-18T08:31:40.224Z,29.00
2022-10-18T08:34:08.244Z,28.70
2022-10-18T08:36:37.500Z,24.30
2022-10-18T08:39:05.556Z,23.00
2022-10-18T08:41:58.644Z,26.50
2022-10-18T08:44:33.837Z,26.40
2022-10-18T08:47:10.553Z,24.60
2022-10-18T08:49:56.021Z,25.40
2022-10-18T08:52:57.760Z,25.00
2022-10-18T08:55:39.687Z,23.30
2022-10-18T08:58:34.043Z,25.10
2022-10-18T09:01:26.196Z,26.90
2022-10-18T09:04:29.441Z,24.70
2022-10-18T09:07:32.507Z,24.80
2022-10-18T09:10:33.934Z,24.40
2022-10-18T09:13:42.535Z,26.60
2022-10-18T09:16:22.049Z,25.50
2022-10-18T09:19:32.768Z,25.80
2022-10-18T09:22:13.235Z,26.10
2022-10-18T09:24:56.528Z,27.70
2022-10-18T09:27:50.998Z,25.50
2022-10-18T09:30:45.589Z,23.60
2022-10-18T09:33:19.582Z,26.60
2022-10-18T09:36:07.953Z,27.60
2022-10-18T09:39:03.993Z,21.20
2022-10-18T09:41:46.126Z,23.00
2022-10-18T09:44:35.993Z,23.90
2022-10-18T09:47:17.108Z,24.00
2022-10-18T09:49:57.387Z,28.70
2022-10-18T09:52:42.985Z,21.40
2022-10-18T09:55:21.341Z,22.30
2022-10-18T09:57:56.627Z,23.50
2022-10-18T10:00:33.759Z,22.60
2022-10-18T10:03:07.203Z,24.80
2022-10-18T10:05:35.251Z,22.30
2022-10-18T10:08:04.336Z,24.60
2022-10-18T10:10:33.484Z,24.70
2022-10-18T10:13:24.666Z,23.70
2022-10-18T10:16:00.781Z,22.00
2022-10-18T10:18:36.494Z,21.70
2022-10-18T10:21:14.813Z,19.80
2022-10-18T10:23:53.278Z,19.60
2022-10-18T10:26:31.122Z,18.00
2022-10-18T10:28:59.917Z,17.80
2022-10-18T10:31:30.914Z,18.40
2022-10-18T10:34:02.142Z,18.70
2022-10-18T10:36:31.990Z,17.80
2022-10-18T10:39:06.413Z,21.30
2022-10-18T10:41:34.935Z,20.20
2022-10-18T10:44:13.902Z,18.20
2022-10-18T10:46:42.571Z,17.40
2022-10-18T10:49:46.476Z,24.20
2022-10-18T10:52:27.216Z,18.80
2022-10-18T10:55:11.333Z,19.50
2022-10-18T10:57:48.433Z,19.20
2022-10-18T11:00:44.329Z,16.10
2022-10-18T11:03:29.106Z,17.00
2022-10-18T11:06:00.879Z,15.60
2022-10-18T11:08:41.539Z,14.90
2022-10-18T11:11:26.784Z,13.10
2022-10-18T11:14:26.671Z,13.10
2022-10-18T11:17:27.843Z,18.70
2022-10-18T11:20:09.748Z,16.30
2022-10-18T11:23:05.789Z,14.90
2022-10-18T11:26:04.485Z,13.70
2022-10-18T11:29:28.784Z,14.10
2022-10-18T11:32:19.514Z,11.40
2022-10-18T11:35:26.983Z,11.00
2022-10-18T11:38:32.289Z,11.30
2022-10-18T11:41:28.452Z,10.80
2022-10-18T11:44:03.664Z,10.40
2022-10-18T11:46:59.299Z,11.40
2022-10-18T11:50:05.740Z,10.40
2022-10-18T11:52:44.906Z,11.30
2022-10-18T11:55:46.461Z,12.20
2022-10-18T11:58:38.823Z,10.20
2022-10-18T12:01:29.564Z,10.30
2022-10-18T12:04:18.200Z,9.80
2022-10-18T12:06:50.760Z,9.70
2022-10-18T12:09:45.841Z,9.90
2022-10-18T12:12:33.507Z,8.60
2022-10-18T12:15:14.396Z,10.00
2022-10-18T12:17:50.139Z,10.60
2022-10-18T12:20:30.061Z,9.90
2022-10-18T12:23:16.256Z,9.90
2022-10-18T12:25:52.759Z,9.00
2022-10-18T12:28:51.859Z,8.80
2022-10-18T12:31:46.072Z,11.30
2022-10-18T12:34:26.513Z,10.70
2022-10-18T12:37:36.700Z,9.30
2022-10-18T12:40:32.315Z,9.50
2022-10-18T12:43:07.236Z,10.50
2022-10-18T12:45:46.492Z,9.10
2022-10-18T12:48:33.284Z,10.20
2022-10-18T12:51:20.274Z,9.80
2022-10-18T12:54:08.215Z,9.70
2022-10-18T12:56:42.194Z,10.40
2022-10-18T12:59:16.369Z,8.50
2022-10-18T13:01:50.641Z,10.10
2022-10-18T13:04:27.889Z,7.90
2022-10-18T13:06:59.625Z,8.40
2022-10-18T13:09:35.465Z,8.30
2022-10-18T13:12:09.633Z,8.70
2022-10-18T13:14:53.446Z,8.30
2022-10-18T13:17:49.920Z,8.40
2022-10-18T13:20:40.859Z,8.20
2022-10-18T13:23:39.265Z,8.60
2022-10-18T13:26:25.891Z,8.20
2022-10-18T13:29:09.567Z,7.50
2022-10-18T13:32:01.416Z,8.40
2022-10-18T13:34:38.529Z,8.30
2022-10-18T13:37:09.592Z,7.60
2022-10-18T13:39:40.060Z,8.10
2022-10-18T13:42:14.255Z,7.60
2022-10-18T13:44:44.734Z,7.50
2022-10-18T13:47:16.342Z,6.80
2022-10-18T13:50:35.544Z,7.50
2022-10-18T13:53:32.938Z,7.20
2022-10-18T13:56:34.466Z,7.30
2022-10-18T13:59:18.568Z,8.50
2022-10-18T14:02:00.521Z,7.50
2022-10-18T14:04:43.702Z,10.10
2022-10-18T14:09:56.171Z,9.00
2022-10-18T14:12:41.112Z,9.10
2022-10-18T14:15:24.720Z,7.90
2022-10-18T14:18:06.456Z,7.70
2022-10-18T14:21:01.251Z,8.10
2022-10-18T14:23:46.775Z,8.50
2022-10-18T14:26:19.550Z,8.40
2022-10-18T14:29:06.918Z,8.60
2022-10-18T14:31:35.267Z,8.80
2022-10-18T14:34:03.771Z,9.30
2022-10-18T14:36:42.324Z,9.70
2022-10-18T14:39:29.864Z,10.70
2022-10-18T14:41:58.505Z,9.70
2022-10-18T14:44:30.689Z,9.70
2022-10-18T14:47:01.480Z,10.80
2022-10-18T14:49:30.417Z,15.20
2022-10-18T14:52:00.408Z,16.50
2022-10-18T14:54:33.770Z,21.30
2022-10-18T14:57:03.281Z,21.90
2022-10-18T14:59:41.707Z,23.60
2022-10-18T15:02:21.407Z,33.90
2022-10-18T15:05:19.517Z,30.70
2022-10-18T15:07:50.323Z,29.60
2022-10-18T15:10:25.544Z,28.70
2022-10-18T15:13:09.278Z,30.30
2022-10-18T15:15:39.198Z,42.60
2022-10-18T15:18:08.325Z,57.60
2022-10-18T15:20:42.445Z,75.80
2022-10-18T15:23:31.238Z,78.60
2022-10-18T15:26:09.998Z,60.60
2022-10-18T15:28:52.375Z,47.30
2022-10-18T15:31:28.302Z,46.30
2022-10-18T15:34:21.340Z,29.40
2022-10-18T15:36:50.826Z,18.80
2022-10-18T15:39:25.703Z,18.20
2022-10-18T15:41:59.655Z,15.80
2022-10-18T15:44:34.812Z,15.70
2022-10-18T15:47:11.977Z,13.70
2022-10-18T15:49:46.265Z,17.10
2022-10-18T15:52:38.603Z,18.10
2022-10-18T15:55:52.395Z,18.50
2022-10-18T15:58:27.847Z,24.10
2022-10-18T16:01:00.491Z,22.20
2022-10-18T16:03:28.755Z,24.10
2022-10-18T16:06:03.226Z,23.10
2022-10-18T16:08:32.287Z,24.20
2022-10-18T16:11:00.657Z,22.60
2022-10-18T16:13:28.962Z,22.10
2022-10-18T16:15:57.074Z,23.30
2022-10-18T16:18:26.233Z,21.90
2022-10-18T16:20:54.331Z,22.60
2022-10-18T16:23:26.371Z,24.60
2022-10-18T16:25:55.188Z,26.80
2022-10-18T16:28:25.762Z,26.60
2022-10-18T16:30:58.981Z,23.60
2022-10-18T16:33:27.207Z,24.10
2022-10-18T16:35:55.335Z,23.90
2022-10-18T16:38:34.013Z,21.00
2022-10-18T16:41:05.992Z,22.30
2022-10-18T16:43:35.117Z,21.80
2022-10-18T16:46:04.617Z,21.80
2022-10-18T16:48:33.279Z,20.00
2022-10-18T16:51:01.996Z,22.10
2022-10-18T16:53:30.098Z,22.00
2022-10-18T16:56:01.177Z,21.20
2022-10-18T16:58:31.184Z,20.80
2022-10-18T17:01:01.915Z,19.30
2022-10-18T17:06:00.102Z,18.30
2022-10-18T17:08:29.139Z,19.50
2022-10-18T17:10:59.275Z,18.80
2022-10-18T17:13:27.373Z,18.80
2022-10-18T17:15:56.144Z,19.90
2022-10-18T17:18:30.505Z,19.10
2022-10-18T17:21:02.990Z,19.70
2022-10-18T17:23:31.158Z,18.20
2022-10-18T17:26:07.231Z,19.20
2022-10-18T17:28:43.282Z,19.40
2022-10-18T17:31:14.764Z,19.50
2022-10-18T17:33:42.822Z,20.40
2022-10-18T17:36:11.693Z,21.50
2022-10-18T17:38:39.791Z,19.80
2022-10-18T17:41:11.763Z,20.40
2022-10-18T17:46:14.384Z,19.50
2022-10-18T17:48:42.589Z,19.70
2022-10-18T17:51:14.802Z,21.20
2022-10-18T17:53:43.092Z,20.30
2022-10-18T17:56:11.990Z,21.20
2022-10-18T17:58:40.187Z,19.90
2022-10-18T18:01:18.328Z,21.50
2022-10-18T18:03:50.141Z,19.70
2022-10-18T18:06:20.299Z,20.80
2022-10-18T18:08:49.651Z,19.80
2022-10-18T18:11:18.311Z,19.70
2022-10-18T18:13:46.339Z,20.60
2022-10-18T18:16:20.859Z,20.50
2022-10-18T18:18:52.013Z,23.60
2022-10-18T18:21:20.930Z,22.80
2022-10-18T18:23:50.280Z,22.50
2022-10-18T18:26:19.341Z,23.80
2022-10-18T18:28:47.882Z,24.70
2022-10-18T18:31:23.534Z,24.40
2022-10-18T18:33:56.784Z,25.50
2022-10-18T18:36:29.056Z,27.20
2022-10-18T18:38:57.938Z,28.70
2022-10-18T18:41:27.898Z,29.30
2022-10-18T18:44:00.606Z,30.20
2022-10-18T18:46:33.247Z,30.70
2022-10-18T18:49:01.352Z,30.10
2022-10-18T18:51:29.469Z,31.60
2022-10-18T18:53:57.563Z,33.10
2022-10-18T18:56:28.930Z,33.90
2022-10-18T18:58:59.210Z,34.10
2022-10-18T19:01:30.939Z,36.10
2022-10-18T19:04:00.054Z,34.10
2022-10-18T19:06:38.441Z,35.00
2022-10-18T19:09:13.238Z,36.60
2022-10-18T19:11:41.266Z,36.10
2022-10-18T19:14:09.433Z,35.30
2022-10-18T19:17:01.680Z,35.00
2022-10-18T19:19:31.017Z,32.30
2022-10-18T19:22:04.447Z,32.50
2022-10-18T19:24:32.671Z,30.20
2022-10-18T19:27:12.363Z,30.00
2022-10-18T19:29:41.023Z,28.30
2022-10-18T19:32:15.891Z,30.20
2022-10-18T19:34:44.123Z,29.30
2022-10-18T19:37:13.681Z,29.50
2022-10-18T19:39:42.076Z,29.00
2022-10-18T19:42:15.715Z,27.90
2022-10-18T19:44:46.854Z,28.00
2022-10-18T19:47:16.221Z,26.50
2022-10-18T19:49:44.316Z,27.30
2022-10-18T19:52:12.488Z,28.10
2022-10-18T19:54:40.664Z,27.70
2022-10-18T19:57:08.904Z,30.50
2022-10-18T19:59:37.027Z,37.20
2022-10-18T20:02:05.321Z,30.90
2022-10-18T20:04:35.059Z,27.30
2022-10-18T20:07:03.155Z,24.80
2022-10-18T20:09:31.288Z,23.80
2022-10-18T20:11:59.290Z,23.60
2022-10-18T20:14:27.311Z,23.30
2022-10-18T20:16:55.388Z,22.40
2022-10-18T20:19:23.500Z,22.90
2022-10-18T20:21:51.568Z,20.90
2022-10-18T20:24:19.599Z,19.40
2022-10-18T20:26:47.666Z,19.80
2022-10-18T20:29:15.737Z,17.20
2022-10-18T20:31:43.863Z,17.70
2022-10-18T20:34:12.185Z,17.60
2022-10-18T20:36:40.856Z,16.80
2022-10-18T20:39:09.797Z,17.10
2022-10-18T20:41:43.244Z,17.70
2022-10-18T20:44:16.022Z,18.40
2022-10-18T20:46:44.363Z,19.20
2022-10-18T20:49:15.609Z,19.00
2022-10-18T20:51:43.807Z,18.70
2022-10-18T20:54:12.770Z,18.20
2022-10-18T20:56:40.939Z,19.30
2022-10-18T20:59:10.211Z,17.90
2022-10-18T21:01:39.346Z,18.60
2022-10-18T21:04:10.308Z,19.40
2022-10-18T21:06:42.526Z,20.40
2022-10-18T21:09:17.358Z,20.70
2022-10-18T21:11:49.770Z,20.30
2022-10-18T21:14:20.737Z,19.00
2022-10-18T21:16:50.172Z,16.70
2022-10-18T21:19:22.795Z,17.20
2022-10-18T21:21:54.733Z,16.00
2022-10-18T21:24:24.574Z,17.90
2022-10-18T21:26:52.803Z,17.70
2022-10-18T21:29:22.657Z,16.70
2022-10-18T21:31:59.331Z,17.30
2022-10-18T21:34:27.480Z,17.30
2022-10-18T21:36:55.485Z,17.20
2022-10-18T21:41:57.469Z,15.20
2022-10-18T21:44:25.932Z,14.50
2022-10-18T21:46:55.076Z,15.30
2022-10-18T21:49:25.075Z,15.40
2022-10-18T21:51:53.224Z,16.30
2022-10-18T21:54:21.387Z,15.60
2022-10-18T21:56:49.407Z,16.20
2022-10-18T21:59:17.426Z,18.40
2022-10-18T22:01:45.889Z,18.00
2022-10-18T22:04:23.149Z,17.60
2022-10-18T22:06:52.080Z,18.50
2022-10-18T22:09:21.503Z,20.10
2022-10-18T22:11:52.932Z,18.30
2022-10-18T22:14:21.802Z,19.60
2022-10-18T22:16:50.116Z,21.50
2022-10-18T22:19:18.206Z,21.10
2022-10-18T22:21:46.627Z,19.80
2022-10-18T22:24:14.927Z,19.20
2022-10-18T22:26:44.577Z,16.90
2022-10-18T22:29:21.233Z,17.60
2022-10-18T22:31:53.559Z,16.20
2022-10-18T22:34:29.465Z,16.00
2022-10-18T22:36:57.536Z,16.30
2022-10-18T22:39:25.641Z,16.90
2022-10-18T22:41:56.359Z,15.40
2022-10-18T22:44:26.624Z,16.70
2022-10-18T22:46:54.625Z,16.60
2022-10-18T22:49:22.666Z,15.70
2022-10-18T22:51:50.742Z,16.30
2022-10-18T22:54:18.847Z,15.30
2022-10-18T22:56:46.909Z,17.10
2022-10-18T22:59:15.013Z,15.00
2022-10-18T23:01:43.033Z,15.60
2022-10-18T23:04:11.204Z,14.60
2022-10-18T23:06:39.848Z,13.30
2022-10-18T23:09:10.709Z,14.30
2022-10-18T23:11:38.786Z,14.00
2022-10-18T23:14:07.115Z,15.30
2022-10-18T23:16:35.664Z,13.60
2022-10-18T23:19:04.419Z,15.10
2022-10-18T23:21:34.316Z,14.00
2022-10-18T23:24:02.359Z,14.90
2022-10-18T23:26:30.401Z,14.20
2022-10-18T23:28:58.622Z,14.20
2022-10-18T23:31:33.004Z,14.10
2022-10-18T23:34:05.046Z,13.50
2022-10-18T23:36:34.114Z,13.10
2022-10-18T23:39:04.070Z,13.20
2022-10-18T23:41:32.536Z,14.40
2022-10-18T23:44:00.624Z,14.30
2022-10-18T23:46:28.759Z,14.60
2022-10-18T23:48:56.821Z,14.40
2022-10-18T23:51:24.884Z,13.80
2022-10-18T23:53:53.152Z,14.20
2022-10-18T23:56:21.176Z,14.00
2022-10-18T23:58:49.191Z,14.80
